createdAt,value
2023-03-29T00:02:30.000Z,1027.53
2023-03-29T00:05:12.000Z,1027.43
2023-03-29T00:07:51.000Z,1027.4
2023-03-29T00:10:31.000Z,1027.45
2023-03-29T00:13:13.000Z,1027.37
2023-03-29T00:15:55.000Z,1027.33
2023-03-29T00:18:39.000Z,1027.39
2023-03-29T00:21:24.000Z,1027.4
2023-03-29T00:24:08.000Z,1027.3
2023-03-29T00:26:47.000Z,1027.39
2023-03-29T00:29:27.000Z,1027.38
2023-03-29T00:32:09.000Z,1027.27
2023-03-29T00:34:49.000Z,1027.35
2023-03-29T00:37:32.000Z,1027.32
2023-03-29T00:40:13.000Z,1027.29
2023-03-29T00:42:54.000Z,1027.28
2023-03-29T00:45:33.000Z,1027.29
2023-03-29T00:48:14.000Z,1027.19
2023-03-29T00:50:55.000Z,1027.14
2023-03-29T00:53:45.000Z,1027.2
2023-03-29T00:56:25.000Z,1027.22
2023-03-29T00:59:06.000Z,1027.1
2023-03-29T01:01:45.000Z,1027.15
2023-03-29T01:04:27.000Z,1027.04
2023-03-29T01:07:09.000Z,1027.02
2023-03-29T01:09:49.000Z,1027.07
2023-03-29T01:12:34.000Z,1027.01
2023-03-29T01:15:17.000Z,1026.83
2023-03-29T01:17:57.000Z,1026.84
2023-03-29T01:20:40.000Z,1026.84
2023-03-29T01:23:23.000Z,1026.78
2023-03-29T01:26:06.000Z,1026.71
2023-03-29T01:28:49.000Z,1026.7
2023-03-29T01:31:30.000Z,1026.67
2023-03-29T01:34:12.000Z,1026.61
2023-03-29T01:36:55.000Z,1026.59
2023-03-29T01:39:38.000Z,1026.58
2023-03-29T01:42:23.000Z,1026.46
2023-03-29T01:45:03.000Z,1026.41
2023-03-29T01:47:44.000Z,1026.41
2023-03-29T01:50:26.000Z,1026.4
2023-03-29T01:53:09.000Z,1026.25
2023-03-29T01:55:52.000Z,1026.26
2023-03-29T01:58:34.000Z,1026.26
2023-03-29T02:01:16.000Z,1026.16
2023-03-29T02:03:57.000Z,1026.1
2023-03-29T02:06:38.000Z,1026.16
2023-03-29T02:09:21.000Z,1026.0
2023-03-29T02:12:02.000Z,1025.97
2023-03-29T02:14:44.000Z,1026.06
2023-03-29T02:17:25.000Z,1025.95
2023-03-29T02:20:08.000Z,1025.95
2023-03-29T02:22:49.000Z,1025.94
2023-03-29T02:25:31.000Z,1025.93
2023-03-29T02:28:15.000Z,1025.81
2023-03-29T02:30:58.000Z,1025.77
2023-03-29T02:33:38.000Z,1025.79
2023-03-29T02:36:17.000Z,1025.61
2023-03-29T02:38:59.000Z,1025.61
2023-03-29T02:41:41.000Z,1025.63
2023-03-29T02:44:23.000Z,1025.58
2023-03-29T02:47:04.000Z,1025.51
2023-03-29T02:49:45.000Z,1025.58
2023-03-29T02:52:27.000Z,1025.44
2023-03-29T02:55:12.000Z,1025.41
2023-03-29T02:57:55.000Z,1025.48
2023-03-29T03:00:38.000Z,1025.46
2023-03-29T03:03:18.000Z,1025.38
2023-03-29T03:06:08.000Z,1025.37
2023-03-29T03:08:48.000Z,1025.35
2023-03-29T03:11:30.000Z,1025.34
2023-03-29T03:14:15.000Z,1025.3
2023-03-29T03:16:57.000Z,1025.31
2023-03-29T03:19:39.000Z,1025.33
2023-03-29T03:22:19.000Z,1025.21
2023-03-29T03:24:59.000Z,1025.3
2023-03-29T03:27:37.000Z,1025.31
2023-03-29T03:30:16.000Z,1025.3
2023-03-29T03:32:57.000Z,1025.32
2023-03-29T03:35:39.000Z,1025.24
2023-03-29T03:38:22.000Z,1025.13
2023-03-29T03:41:07.000Z,1025.1
2023-03-29T03:43:51.000Z,1025.14
2023-03-29T03:46:31.000Z,1025.09
2023-03-29T03:49:13.000Z,1025.1
2023-03-29T03:51:55.000Z,1025.14
2023-03-29T03:54:41.000Z,1025.14
2023-03-29T03:57:25.000Z,1025.1
2023-03-29T04:00:06.000Z,1025.06
2023-03-29T04:02:48.000Z,1025.12
2023-03-29T04:05:30.000Z,1025.0
2023-03-29T04:08:10.000Z,1024.98
2023-03-29T04:10:57.000Z,1025.08
2023-03-29T04:13:38.000Z,1025.02
2023-03-29T04:16:23.000Z,1024.95
2023-03-29T04:19:04.000Z,1024.94
2023-03-29T04:21:44.000Z,1025.04
2023-03-29T04:24:24.000Z,1024.94
2023-03-29T04:27:06.000Z,1025.0
2023-03-29T04:29:45.000Z,1025.0
2023-03-29T04:32:27.000Z,1024.93
2023-03-29T04:35:10.000Z,1025.0
2023-03-29T04:37:54.000Z,1025.06
2023-03-29T04:40:34.000Z,1025.0
2023-03-29T04:43:14.000Z,1025.05
2023-03-29T04:45:56.000Z,1025.06
2023-03-29T04:48:38.000Z,1025.11
2023-03-29T04:51:22.000Z,1024.99
2023-03-29T04:54:07.000Z,1025.01
2023-03-29T04:56:51.000Z,1025.03
2023-03-29T04:59:32.000Z,1024.98
2023-03-29T05:02:13.000Z,1024.95
2023-03-29T05:05:01.000Z,1025.0
2023-03-29T05:07:42.000Z,1024.97
2023-03-29T05:10:22.000Z,1024.92
2023-03-29T05:13:04.000Z,1024.94
2023-03-29T05:15:45.000Z,1024.87
2023-03-29T05:18:28.000Z,1024.79
2023-03-29T05:21:09.000Z,1024.72
2023-03-29T05:23:51.000Z,1024.79
2023-03-29T05:26:34.000Z,1024.77
2023-03-29T05:29:14.000Z,1024.78
2023-03-29T05:31:58.000Z,1024.78
2023-03-29T05:34:40.000Z,1024.83
2023-03-29T05:37:21.000Z,1024.78
2023-03-29T05:40:01.000Z,1024.79
2023-03-29T05:42:43.000Z,1024.77
2023-03-29T05:45:23.000Z,1024.71
2023-03-29T05:48:06.000Z,1024.73
2023-03-29T05:50:46.000Z,1024.72
2023-03-29T05:53:29.000Z,1024.61
2023-03-29T05:56:14.000Z,1024.63
2023-03-29T05:58:54.000Z,1024.69
2023-03-29T06:01:34.000Z,1024.58
2023-03-29T06:04:14.000Z,1024.59
2023-03-29T06:06:53.000Z,1024.62
2023-03-29T06:09:33.000Z,1024.51
2023-03-29T06:12:16.000Z,1024.53
2023-03-29T06:14:59.000Z,1024.54
2023-03-29T06:17:40.000Z,1024.43
2023-03-29T06:20:22.000Z,1024.46
2023-03-29T06:23:07.000Z,1024.56
2023-03-29T06:25:49.000Z,1024.5
2023-03-29T06:28:29.000Z,1024.46
2023-03-29T06:31:10.000Z,1024.49
2023-03-29T06:33:49.000Z,1024.51
2023-03-29T06:36:29.000Z,1024.45
2023-03-29T06:39:09.000Z,1024.52
2023-03-29T06:41:50.000Z,1024.48
2023-03-29T06:44:31.000Z,1024.38
2023-03-29T06:47:14.000Z,1024.35
2023-03-29T06:49:56.000Z,1024.37
2023-03-29T06:52:36.000Z,1024.29
2023-03-29T06:55:16.000Z,1024.35
2023-03-29T06:57:58.000Z,1024.42
2023-03-29T07:00:39.000Z,1024.49
2023-03-29T07:03:24.000Z,1024.52
2023-03-29T07:06:06.000Z,1024.58
2023-03-29T07:08:50.000Z,1024.59
2023-03-29T07:11:30.000Z,1024.45
2023-03-29T07:14:11.000Z,1024.54
2023-03-29T07:16:53.000Z,1024.48
2023-03-29T07:19:38.000Z,1024.46
2023-03-29T07:22:23.000Z,1024.52
2023-03-29T07:25:08.000Z,1024.68
2023-03-29T07:27:46.000Z,1024.64
2023-03-29T07:30:27.000Z,1024.57
2023-03-29T07:33:08.000Z,1024.61
2023-03-29T07:35:48.000Z,1024.55
2023-03-29T07:38:30.000Z,1024.47
2023-03-29T07:41:12.000Z,1024.53
2023-03-29T07:43:55.000Z,1024.59
2023-03-29T07:46:39.000Z,1024.48
2023-03-29T07:49:23.000Z,1024.56
2023-03-29T07:52:05.000Z,1024.67
2023-03-29T07:54:45.000Z,1024.55
2023-03-29T07:57:25.000Z,1024.53
2023-03-29T08:00:06.000Z,1024.59
2023-03-29T08:02:46.000Z,1024.54
2023-03-29T08:05:35.000Z,1024.48
2023-03-29T08:08:19.000Z,1024.45
2023-03-29T08:11:05.000Z,1024.49
2023-03-29T08:13:49.000Z,1024.55
2023-03-29T08:16:30.000Z,1024.5
2023-03-29T08:19:12.000Z,1024.61
2023-03-29T08:21:55.000Z,1024.6
2023-03-29T08:24:41.000Z,1024.43
2023-03-29T08:27:24.000Z,1024.44
2023-03-29T08:30:15.000Z,1024.49
2023-03-29T08:33:01.000Z,1024.45
2023-03-29T08:35:46.000Z,1024.31
2023-03-29T08:38:33.000Z,1024.27
2023-03-29T08:41:14.000Z,1024.3
2023-03-29T08:43:56.000Z,1024.31
2023-03-29T08:46:35.000Z,1024.19
2023-03-29T08:49:24.000Z,1024.19
2023-03-29T08:52:07.000Z,1024.3
2023-03-29T08:54:54.000Z,1024.26
2023-03-29T08:57:35.000Z,1024.1
2023-03-29T09:00:15.000Z,1024.12
2023-03-29T09:02:57.000Z,1024.08
2023-03-29T09:05:40.000Z,1024.01
2023-03-29T09:08:22.000Z,1023.99
2023-03-29T09:11:08.000Z,1024.0
2023-03-29T09:13:49.000Z,1023.86
2023-03-29T09:16:31.000Z,1023.91
2023-03-29T09:19:13.000Z,1024.0
2023-03-29T09:21:55.000Z,1023.98
2023-03-29T09:24:34.000Z,1023.95
2023-03-29T09:27:20.000Z,1024.02
2023-03-29T09:30:02.000Z,1024.07
2023-03-29T09:32:47.000Z,1023.92
2023-03-29T09:35:31.000Z,1024.0
2023-03-29T09:38:13.000Z,1024.03
2023-03-29T09:40:54.000Z,1023.96
2023-03-29T09:43:35.000Z,1023.94
2023-03-29T09:46:19.000Z,1024.02
2023-03-29T09:49:04.000Z,1023.91
2023-03-29T09:51:45.000Z,1023.86
2023-03-29T09:54:30.000Z,1023.8
2023-03-29T09:57:14.000Z,1023.88
2023-03-29T09:59:56.000Z,1023.9
2023-03-29T10:02:39.000Z,1023.79
2023-03-29T10:05:24.000Z,1023.81
2023-03-29T10:08:08.000Z,1023.83
2023-03-29T10:10:48.000Z,1023.73
2023-03-29T10:13:30.000Z,1023.68
2023-03-29T10:16:14.000Z,1023.72
2023-03-29T10:19:00.000Z,1023.72
2023-03-29T10:21:46.000Z,1023.56
2023-03-29T10:24:28.000Z,1023.56
2023-03-29T10:27:18.000Z,1023.6
2023-03-29T10:30:05.000Z,1023.66
2023-03-29T10:32:45.000Z,1023.49
2023-03-29T10:35:29.000Z,1023.52
2023-03-29T10:38:14.000Z,1023.59
2023-03-29T10:40:55.000Z,1023.55
2023-03-29T10:43:35.000Z,1023.42
2023-03-29T10:46:15.000Z,1023.46
2023-03-29T10:49:05.000Z,1023.39
2023-03-29T10:51:47.000Z,1023.23
2023-03-29T10:54:29.000Z,1023.2
2023-03-29T10:57:11.000Z,1023.35
2023-03-29T10:59:56.000Z,1023.29
2023-03-29T11:02:40.000Z,1023.17
2023-03-29T11:05:23.000Z,1023.16
2023-03-29T11:08:05.000Z,1023.19
2023-03-29T11:10:47.000Z,1023.08
2023-03-29T11:13:33.000Z,1023.06
2023-03-29T11:16:14.000Z,1023.13
2023-03-29T11:18:55.000Z,1023.02
2023-03-29T11:21:34.000Z,1023.0
2023-03-29T11:24:14.000Z,1023.04
2023-03-29T11:26:54.000Z,1022.9
2023-03-29T11:29:35.000Z,1022.88
2023-03-29T11:32:15.000Z,1022.91
2023-03-29T11:34:56.000Z,1022.85
2023-03-29T11:37:38.000Z,1022.84
2023-03-29T11:40:26.000Z,1022.91
2023-03-29T11:43:09.000Z,1022.94
2023-03-29T11:45:50.000Z,1022.87
2023-03-29T11:48:32.000Z,1022.86
2023-03-29T11:51:15.000Z,1022.9
2023-03-29T11:54:01.000Z,1022.93
2023-03-29T11:56:43.000Z,1022.85
2023-03-29T11:59:24.000Z,1022.95
2023-03-29T12:02:07.000Z,1022.9
2023-03-29T12:04:49.000Z,1022.79
2023-03-29T12:07:33.000Z,1022.66
2023-03-29T12:10:15.000Z,1022.78
2023-03-29T12:13:04.000Z,1022.7
2023-03-29T12:15:46.000Z,1022.57
2023-03-29T12:18:30.000Z,1022.64
2023-03-29T12:21:14.000Z,1022.55
2023-03-29T12:23:58.000Z,1022.52
2023-03-29T12:26:38.000Z,1022.51
2023-03-29T12:29:18.000Z,1022.53
2023-03-29T12:31:58.000Z,1022.45
2023-03-29T12:34:38.000Z,1022.47
2023-03-29T12:37:20.000Z,1022.57
2023-03-29T12:39:59.000Z,1022.35
2023-03-29T12:42:41.000Z,1022.43
2023-03-29T12:45:25.000Z,1022.38
2023-03-29T12:48:08.000Z,1022.4
2023-03-29T12:50:52.000Z,1022.25
2023-03-29T12:53:34.000Z,1022.2
2023-03-29T12:56:16.000Z,1022.23
2023-03-29T12:58:57.000Z,1022.14
2023-03-29T13:01:39.000Z,1022.03
2023-03-29T13:04:21.000Z,1022.14
2023-03-29T13:07:10.000Z,1022.17
2023-03-29T13:09:53.000Z,1022.0
2023-03-29T13:12:33.000Z,1022.19
2023-03-29T13:15:14.000Z,1022.24
2023-03-29T13:17:58.000Z,1022.04
2023-03-29T13:20:47.000Z,1021.99
2023-03-29T13:23:27.000Z,1022.04
2023-03-29T13:26:09.000Z,1021.88
2023-03-29T13:28:51.000Z,1021.85
2023-03-29T13:31:33.000Z,1021.9
2023-03-29T13:34:16.000Z,1021.95
2023-03-29T13:37:04.000Z,1021.8
2023-03-29T13:39:51.000Z,1021.76
2023-03-29T13:42:46.000Z,1021.82
2023-03-29T13:45:32.000Z,1021.83
2023-03-29T13:48:16.000Z,1021.74
2023-03-29T13:50:58.000Z,1021.65
2023-03-29T13:53:45.000Z,1021.63
2023-03-29T13:56:29.000Z,1021.68
2023-03-29T13:59:12.000Z,1021.68
2023-03-29T14:02:00.000Z,1021.6
2023-03-29T14:04:43.000Z,1021.66
2023-03-29T14:07:26.000Z,1021.74
2023-03-29T14:10:14.000Z,1021.83
2023-03-29T14:13:03.000Z,1021.67
2023-03-29T14:15:48.000Z,1021.63
2023-03-29T14:18:31.000Z,1021.76
2023-03-29T14:21:13.000Z,1021.81
2023-03-29T14:23:56.000Z,1021.71
2023-03-29T14:26:43.000Z,1021.73
2023-03-29T14:29:28.000Z,1021.78
2023-03-29T14:32:17.000Z,1021.79
2023-03-29T14:34:59.000Z,1021.67
2023-03-29T14:37:46.000Z,1021.64
2023-03-29T14:40:43.000Z,1021.6
2023-03-29T14:43:25.000Z,1021.77
2023-03-29T14:46:08.000Z,1021.66
2023-03-29T14:48:51.000Z,1021.6
2023-03-29T14:51:34.000Z,1021.53
2023-03-29T14:54:19.000Z,1021.46
2023-03-29T14:57:04.000Z,1021.39
2023-03-29T14:59:45.000Z,1021.29
2023-03-29T15:02:32.000Z,1021.36
2023-03-29T15:05:18.000Z,1021.37
2023-03-29T15:08:14.000Z,1021.34
2023-03-29T15:10:58.000Z,1021.24
2023-03-29T15:13:44.000Z,1021.22
2023-03-29T15:16:28.000Z,1021.3
2023-03-29T15:19:12.000Z,1021.23
2023-03-29T15:22:00.000Z,1021.12
2023-03-29T15:24:43.000Z,1021.08
2023-03-29T15:27:26.000Z,1021.19
2023-03-29T15:30:15.000Z,1021.12
2023-03-29T15:32:57.000Z,1021.01
2023-03-29T15:35:40.000Z,1021.13
2023-03-29T15:38:28.000Z,1021.14
2023-03-29T15:41:10.000Z,1021.01
2023-03-29T15:43:53.000Z,1020.99
2023-03-29T15:46:43.000Z,1020.97
2023-03-29T15:49:50.000Z,1020.91
2023-03-29T15:52:40.000Z,1021.0
2023-03-29T15:55:28.000Z,1020.96
2023-03-29T15:58:54.000Z,1020.75
2023-03-29T16:01:35.000Z,1020.85
2023-03-29T16:04:16.000Z,1020.89
2023-03-29T16:06:58.000Z,1020.9
2023-03-29T16:09:48.000Z,1020.87
2023-03-29T16:12:37.000Z,1020.93
2023-03-29T16:15:25.000Z,1020.92
2023-03-29T16:18:10.000Z,1020.86
2023-03-29T16:20:57.000Z,1020.94
2023-03-29T16:23:40.000Z,1021.05
2023-03-29T16:26:23.000Z,1021.08
2023-03-29T16:29:08.000Z,1020.94
2023-03-29T16:31:55.000Z,1020.89
2023-03-29T16:34:39.000Z,1020.96
2023-03-29T16:37:29.000Z,1020.95
2023-03-29T16:40:12.000Z,1020.85
2023-03-29T16:42:54.000Z,1020.83
2023-03-29T16:45:46.000Z,1020.83
2023-03-29T16:48:30.000Z,1020.86
2023-03-29T16:51:18.000Z,1020.88
2023-03-29T16:54:05.000Z,1020.79
2023-03-29T16:56:55.000Z,1020.76
2023-03-29T16:59:45.000Z,1020.81
2023-03-29T17:02:32.000Z,1020.77
2023-03-29T17:05:15.000Z,1020.65
2023-03-29T17:08:03.000Z,1020.63
2023-03-29T17:10:44.000Z,1020.75
2023-03-29T17:13:37.000Z,1020.74
2023-03-29T17:16:22.000Z,1020.74
2023-03-29T17:19:12.000Z,1020.63
2023-03-29T17:21:54.000Z,1020.63
2023-03-29T17:24:44.000Z,1020.7
2023-03-29T17:27:28.000Z,1020.7
2023-03-29T17:30:15.000Z,1020.61
2023-03-29T17:32:58.000Z,1020.66
2023-03-29T17:35:47.000Z,1020.7
2023-03-29T17:38:32.000Z,1020.67
2023-03-29T17:41:14.000Z,1020.61
2023-03-29T17:43:58.000Z,1020.62
2023-03-29T17:46:45.000Z,1020.79
2023-03-29T17:49:26.000Z,1020.8
2023-03-29T17:52:10.000Z,1020.79
2023-03-29T17:54:54.000Z,1020.79
2023-03-29T17:57:53.000Z,1020.76
2023-03-29T18:00:44.000Z,1020.9
2023-03-29T18:03:31.000Z,1020.87
2023-03-29T18:06:19.000Z,1020.87
2023-03-29T18:09:15.000Z,1020.86
2023-03-29T18:12:07.000Z,1020.92
2023-03-29T18:14:51.000Z,1021.02
2023-03-29T18:17:33.000Z,1020.97
2023-03-29T18:20:33.000Z,1020.94
2023-03-29T18:23:17.000Z,1020.89
2023-03-29T18:25:59.000Z,1020.88
2023-03-29T18:28:42.000Z,1020.92
2023-03-29T18:31:28.000Z,1020.94
2023-03-29T18:34:15.000Z,1020.85
2023-03-29T18:36:58.000Z,1020.82
2023-03-29T18:39:42.000Z,1020.91
2023-03-29T18:42:31.000Z,1020.89
2023-03-29T18:45:12.000Z,1020.82
2023-03-29T18:47:56.000Z,1020.82
2023-03-29T18:50:46.000Z,1020.89
2023-03-29T18:53:29.000Z,1020.87
2023-03-29T18:56:14.000Z,1020.83
2023-03-29T18:58:57.000Z,1020.84
2023-03-29T19:01:39.000Z,1020.89
2023-03-29T19:04:22.000Z,1020.77
2023-03-29T19:07:09.000Z,1020.71
2023-03-29T19:09:54.000Z,1020.79
2023-03-29T19:12:35.000Z,1020.77
2023-03-29T19:15:15.000Z,1020.67
2023-03-29T19:18:48.000Z,1020.72
2023-03-29T19:21:48.000Z,1020.69
2023-03-29T19:24:34.000Z,1020.68
2023-03-29T19:27:22.000Z,1020.65
2023-03-29T19:30:06.000Z,1020.61
2023-03-29T19:32:55.000Z,1020.59
2023-03-29T19:35:38.000Z,1020.58
2023-03-29T19:38:27.000Z,1020.59
2023-03-29T19:41:09.000Z,1020.49
2023-03-29T19:43:51.000Z,1020.52
2023-03-29T19:46:59.000Z,1020.39
2023-03-29T19:49:48.000Z,1020.34
2023-03-29T19:52:32.000Z,1020.34
2023-03-29T19:55:15.000Z,1020.17
2023-03-29T19:58:00.000Z,1020.21
2023-03-29T20:00:49.000Z,1020.21
2023-03-29T20:03:33.000Z,1020.15
2023-03-29T20:06:18.000Z,1020.1
2023-03-29T20:09:01.000Z,1020.11
2023-03-29T20:11:50.000Z,1020.21
2023-03-29T20:14:34.000Z,1020.12
2023-03-29T20:17:14.000Z,1020.05
2023-03-29T20:20:00.000Z,1020.07
2023-03-29T20:22:48.000Z,1020.09
2023-03-29T20:25:30.000Z,1020.04
2023-03-29T20:28:12.000Z,1019.98
2023-03-29T20:31:00.000Z,1019.95
2023-03-29T20:33:46.000Z,1019.91
2023-03-29T20:36:35.000Z,1019.88
2023-03-29T20:39:16.000Z,1019.79
2023-03-29T20:41:58.000Z,1019.8
2023-03-29T20:44:40.000Z,1019.83
2023-03-29T20:47:25.000Z,1019.76
2023-03-29T20:50:11.000Z,1019.79
2023-03-29T20:52:53.000Z,1019.82
2023-03-29T20:55:35.000Z,1019.86
2023-03-29T20:58:24.000Z,1019.79
2023-03-29T21:01:08.000Z,1019.7
2023-03-29T21:03:56.000Z,1019.79
2023-03-29T21:06:48.000Z,1019.79
2023-03-29T21:09:33.000Z,1019.75
2023-03-29T21:12:15.000Z,1019.71
2023-03-29T21:15:07.000Z,1019.64
2023-03-29T21:17:50.000Z,1019.78
2023-03-29T21:20:33.000Z,1019.68
2023-03-29T21:23:19.000Z,1019.64
2023-03-29T21:26:08.000Z,1019.62
2023-03-29T21:28:56.000Z,1019.65
2023-03-29T21:31:39.000Z,1019.66
2023-03-29T21:34:23.000Z,1019.58
2023-03-29T21:37:08.000Z,1019.52
2023-03-29T21:39:51.000Z,1019.53
2023-03-29T21:42:44.000Z,1019.51
2023-03-29T21:45:25.000Z,1019.31
2023-03-29T21:48:13.000Z,1019.32
2023-03-29T21:50:58.000Z,1019.45
2023-03-29T21:53:41.000Z,1019.41
2023-03-29T21:56:26.000Z,1019.26
2023-03-29T21:59:13.000Z,1019.26
2023-03-29T22:01:54.000Z,1019.39
2023-03-29T22:04:36.000Z,1019.37
2023-03-29T22:07:25.000Z,1019.25
2023-03-29T22:10:07.000Z,1019.25
2023-03-29T22:12:49.000Z,1019.23
2023-03-29T22:15:33.000Z,1019.15
2023-03-29T22:18:23.000Z,1019.18
2023-03-29T22:21:07.000Z,1019.15
2023-03-29T22:23:54.000Z,1019.23
2023-03-29T22:26:39.000Z,1019.32
2023-03-29T22:29:25.000Z,1019.19
2023-03-29T22:32:10.000Z,1019.17
2023-03-29T22:34:52.000Z,1019.16
2023-03-29T22:37:32.000Z,1019.09
2023-03-29T22:40:16.000Z,1019.05
2023-03-29T22:43:04.000Z,1019.11
2023-03-29T22:45:47.000Z,1019.1
2023-03-29T22:48:35.000Z,1018.97
2023-03-29T22:51:17.000Z,1018.96
2023-03-29T22:54:02.000Z,1018.95
2023-03-29T22:56:49.000Z,1018.89
2023-03-29T22:59:37.000Z,1018.85
2023-03-29T23:02:20.000Z,1018.78
2023-03-29T23:05:04.000Z,1018.77
2023-03-29T23:07:45.000Z,1018.62
2023-03-29T23:10:33.000Z,1018.54
2023-03-29T23:13:16.000Z,1018.6
2023-03-29T23:15:57.000Z,1018.69
2023-03-29T23:18:42.000Z,1018.59
2023-03-29T23:21:27.000Z,1018.35
2023-03-29T23:24:09.000Z,1018.03
2023-03-29T23:26:59.000Z,1017.83
2023-03-29T23:29:42.000Z,1017.91
2023-03-29T23:32:25.000Z,1017.87
2023-03-29T23:35:13.000Z,1018.05
2023-03-29T23:37:57.000Z,1018.18
2023-03-29T23:40:39.000Z,1018.14
2023-03-29T23:43:31.000Z,1018.28
2023-03-29T23:46:14.000Z,1018.25
2023-03-29T23:49:05.000Z,1018.32
2023-03-29T23:51:47.000Z,1018.28
2023-03-29T23:54:32.000Z,1018.12
2023-03-29T23:57:16.000Z,1017.87
